createdAt,value
2019-02-24T00:01:28.676Z,-6.62
2019-02-24T00:03:54.984Z,-6.64
2019-02-24T00:06:21.282Z,-6.60
2019-02-24T00:08:47.592Z,-6.62
2019-02-24T00:11:13.894Z,-6.62
2019-02-24T00:13:40.223Z,-6.66
2019-02-24T00:16:06.527Z,-6.66
2019-02-24T00:18:32.839Z,-6.76
2019-02-24T00:20:59.149Z,-6.75
2019-02-24T00:23:25.453Z,-6.74
2019-02-24T00:25:51.760Z,-6.74
2019-02-24T00:28:18.077Z,-6.76
2019-02-24T00:30:44.379Z,-6.79
2019-02-24T00:33:10.701Z,-6.87
2019-02-24T00:35:37.056Z,-6.91
2019-02-24T00:38:03.388Z,-6.96
2019-02-24T00:40:29.670Z,-6.96
2019-02-24T00:42:55.974Z,-7.01
2019-02-24T00:45:22.288Z,-7.10
2019-02-24T00:47:48.598Z,-7.21
2019-02-24T00:50:14.898Z,-7.34
2019-02-24T00:52:41.207Z,-7.52
2019-02-24T00:55:07.510Z,-7.61
2019-02-24T00:57:33.821Z,-7.65
2019-02-24T01:00:00.255Z,-7.77
2019-02-24T01:02:26.439Z,-7.82
2019-02-24T01:04:52.746Z,-7.78
2019-02-24T01:07:19.050Z,-7.88
2019-02-24T01:09:45.363Z,-7.90
2019-02-24T01:12:11.698Z,-7.90
2019-02-24T01:14:38.050Z,-7.78
2019-02-24T01:17:04.355Z,-7.73
2019-02-24T01:19:30.663Z,-7.75
2019-02-24T01:21:56.967Z,-7.75
2019-02-24T01:24:23.274Z,-7.81
2019-02-24T01:26:49.573Z,-7.80
2019-02-24T01:29:15.881Z,-7.75
2019-02-24T01:31:42.188Z,-7.62
2019-02-24T01:34:08.494Z,-7.49
2019-02-24T01:36:34.798Z,-7.49
2019-02-24T01:39:01.106Z,-7.49
2019-02-24T01:41:27.521Z,-7.50
2019-02-24T01:43:53.786Z,-7.51
2019-02-24T01:46:20.093Z,-7.40
2019-02-24T01:48:46.400Z,-7.39
2019-02-24T01:51:12.705Z,-7.35
2019-02-24T01:53:39.016Z,-7.34
2019-02-24T01:56:05.362Z,-7.28
2019-02-24T01:58:35.105Z,-7.22
2019-02-24T02:00:57.931Z,-7.25
2019-02-24T02:03:24.258Z,-7.17
2019-02-24T02:05:50.567Z,-7.30
2019-02-24T02:08:16.868Z,-7.28
2019-02-24T02:10:43.171Z,-7.28
2019-02-24T02:13:09.530Z,-7.19
2019-02-24T02:15:35.806Z,-7.26
2019-02-24T02:18:02.103Z,-7.26
2019-02-24T02:20:28.414Z,-7.21
2019-02-24T02:22:54.723Z,-7.23
2019-02-24T02:25:21.033Z,-7.24
2019-02-24T02:27:47.335Z,-7.14
2019-02-24T02:30:13.644Z,-7.17
2019-02-24T02:32:39.978Z,-7.08
2019-02-24T02:35:06.263Z,-7.16
2019-02-24T02:37:32.580Z,-7.19
2019-02-24T02:39:58.888Z,-7.17
2019-02-24T02:42:25.199Z,-7.12
2019-02-24T02:44:51.498Z,-7.13
2019-02-24T02:47:17.826Z,-7.02
2019-02-24T02:49:44.132Z,-6.97
2019-02-24T02:52:10.992Z,-6.96
2019-02-24T02:54:37.317Z,-7.02
2019-02-24T02:57:03.559Z,-7.13
2019-02-24T02:59:29.862Z,-7.09
2019-02-24T03:01:56.167Z,-7.08
2019-02-24T03:04:22.490Z,-7.04
2019-02-24T03:06:48.795Z,-6.98
2019-02-24T03:09:15.104Z,-7.02
2019-02-24T03:11:41.409Z,-7.04
2019-02-24T03:14:07.736Z,-6.99
2019-02-24T03:16:34.045Z,-7.05
2019-02-24T03:19:00.350Z,-6.96
2019-02-24T03:21:26.659Z,-6.97
2019-02-24T03:23:52.959Z,-6.91
2019-02-24T03:26:19.357Z,-6.95
2019-02-24T03:28:45.658Z,-6.88
2019-02-24T03:31:11.989Z,-6.87
2019-02-24T03:33:38.293Z,-6.93
2019-02-24T03:36:04.590Z,-6.91
2019-02-24T03:38:30.948Z,-7.00
2019-02-24T03:40:57.252Z,-7.02
2019-02-24T03:43:23.597Z,-7.05
2019-02-24T03:45:49.873Z,-7.10
2019-02-24T03:48:16.199Z,-7.01
2019-02-24T03:50:42.500Z,-6.98
2019-02-24T03:53:08.806Z,-6.98
2019-02-24T03:55:35.119Z,-7.10
2019-02-24T04:00:27.503Z,-7.35
2019-02-24T04:02:53.812Z,-7.33
2019-02-24T04:05:20.120Z,-7.27
2019-02-24T04:07:46.428Z,-7.25
2019-02-24T04:10:12.814Z,-7.27
2019-02-24T04:12:39.114Z,-7.28
2019-02-24T04:15:05.419Z,-7.27
2019-02-24T04:17:31.724Z,-7.25
2019-02-24T04:19:58.123Z,-7.23
2019-02-24T04:22:24.430Z,-7.20
2019-02-24T04:24:50.755Z,-7.17
2019-02-24T04:27:17.068Z,-7.14
2019-02-24T04:29:43.368Z,-7.10
2019-02-24T04:32:09.676Z,-7.12
2019-02-24T04:34:35.985Z,-7.11
2019-02-24T04:37:02.291Z,-7.13
2019-02-24T04:39:28.596Z,-7.13
2019-02-24T04:41:54.904Z,-7.09
2019-02-24T04:44:21.207Z,-7.07
2019-02-24T04:46:47.516Z,-7.10
2019-02-24T04:49:13.824Z,-7.14
2019-02-24T04:51:40.130Z,-7.14
2019-02-24T04:54:06.430Z,-7.20
2019-02-24T04:56:32.736Z,-7.22
2019-02-24T04:58:59.038Z,-7.29
2019-02-24T05:01:25.350Z,-7.40
2019-02-24T05:03:51.653Z,-7.54
2019-02-24T05:06:17.956Z,-7.56
2019-02-24T05:08:44.279Z,-7.66
2019-02-24T05:11:10.588Z,-7.72
2019-02-24T05:13:36.895Z,-8.14
2019-02-24T05:16:03.208Z,-8.48
2019-02-24T05:18:29.499Z,-8.73
2019-02-24T05:20:55.802Z,-8.87
2019-02-24T05:23:22.111Z,-9.02
2019-02-24T05:25:48.444Z,-9.32
2019-02-24T05:28:14.756Z,-9.45
2019-02-24T05:30:41.060Z,-9.61
2019-02-24T05:33:07.368Z,-9.74
2019-02-24T05:35:33.672Z,-9.82
2019-02-24T05:37:59.983Z,-9.79
2019-02-24T05:40:26.295Z,-9.58
2019-02-24T05:42:52.598Z,-9.01
2019-02-24T05:45:18.906Z,-8.56
2019-02-24T05:47:45.217Z,-7.90
2019-02-24T05:50:11.523Z,-7.52
2019-02-24T05:52:37.834Z,-7.05
2019-02-24T05:55:04.153Z,-6.95
2019-02-24T05:57:30.463Z,-6.61
2019-02-24T05:59:56.769Z,-6.50
2019-02-24T06:02:23.087Z,-6.23
2019-02-24T06:04:49.394Z,-6.17
2019-02-24T06:07:15.731Z,-5.88
2019-02-24T06:09:42.036Z,-5.61
2019-02-24T06:12:08.342Z,-5.32
2019-02-24T06:14:34.705Z,-5.03
2019-02-24T06:17:01.009Z,-4.65
2019-02-24T06:19:27.354Z,-4.20
2019-02-24T06:21:53.676Z,-4.14
2019-02-24T06:24:19.994Z,-3.75
2019-02-24T06:26:46.297Z,-3.50
2019-02-24T06:29:12.609Z,-3.52
2019-02-24T06:31:38.911Z,-3.33
2019-02-24T06:34:05.220Z,-2.81
2019-02-24T06:36:31.547Z,-2.95
2019-02-24T06:38:57.856Z,-2.78
2019-02-24T06:41:24.161Z,-2.27
2019-02-24T06:43:50.469Z,-2.11
2019-02-24T06:46:16.788Z,-2.10
2019-02-24T06:48:43.090Z,-2.11
2019-02-24T06:51:09.424Z,-1.89
2019-02-24T06:53:35.715Z,-1.44
2019-02-24T06:56:02.032Z,-1.41
2019-02-24T06:58:28.348Z,-1.52
2019-02-24T07:00:54.804Z,-1.69
2019-02-24T07:03:21.114Z,-1.50
2019-02-24T07:05:47.428Z,-1.28
2019-02-24T07:08:13.729Z,-1.67
2019-02-24T07:10:40.047Z,-1.67
2019-02-24T07:13:06.358Z,-1.67
2019-02-24T07:15:32.691Z,-1.89
2019-02-24T07:17:59.002Z,-1.92
2019-02-24T07:20:25.308Z,-1.70
2019-02-24T07:22:51.624Z,-1.70
2019-02-24T07:25:17.937Z,-1.26
2019-02-24T07:27:44.252Z,-1.28
2019-02-24T07:30:10.582Z,-1.23
2019-02-24T07:32:36.925Z,-1.41
2019-02-24T07:35:03.259Z,-1.36
2019-02-24T07:37:29.570Z,-1.71
2019-02-24T07:39:55.882Z,-1.55
2019-02-24T07:42:22.194Z,-1.32
2019-02-24T07:44:48.500Z,-1.23
2019-02-24T07:47:14.810Z,-1.55
2019-02-24T07:49:41.120Z,-1.03
2019-02-24T07:52:07.430Z,-1.01
2019-02-24T07:54:33.740Z,-0.85
2019-02-24T07:57:00.054Z,-1.58
2019-02-24T07:59:26.367Z,-1.88
2019-02-24T08:01:52.679Z,-1.83
2019-02-24T08:04:18.994Z,-1.21
2019-02-24T08:06:45.304Z,-1.28
2019-02-24T08:09:11.618Z,-1.81
2019-02-24T08:11:37.925Z,-1.51
2019-02-24T08:14:04.240Z,-1.47
2019-02-24T08:16:30.600Z,-1.69
2019-02-24T08:18:56.927Z,-1.59
2019-02-24T08:21:23.240Z,-1.60
2019-02-24T08:23:49.557Z,-1.37
2019-02-24T08:26:15.891Z,-1.39
2019-02-24T08:28:42.203Z,-0.77
2019-02-24T08:31:08.521Z,-0.90
2019-02-24T08:33:34.839Z,-0.55
2019-02-24T08:36:01.152Z,-0.62
2019-02-24T08:38:27.463Z,-0.25
2019-02-24T08:40:55.083Z,-0.20
2019-02-24T08:43:20.086Z,-0.03
2019-02-24T08:45:46.398Z,-0.19
2019-02-24T08:48:12.705Z,-0.35
2019-02-24T08:50:39.024Z,-0.07
2019-02-24T08:53:05.328Z,0.25
2019-02-24T08:55:31.643Z,0.51
2019-02-24T08:57:57.950Z,0.40
2019-02-24T09:00:24.261Z,0.23
2019-02-24T09:02:52.440Z,0.52
2019-02-24T09:05:16.875Z,0.27
2019-02-24T09:07:43.204Z,0.42
2019-02-24T09:10:09.518Z,0.29
2019-02-24T09:12:35.889Z,-0.01
2019-02-24T09:15:02.205Z,0.49
2019-02-24T09:17:28.515Z,0.60
2019-02-24T09:19:54.826Z,0.29
2019-02-24T09:22:21.137Z,0.09
2019-02-24T09:24:47.459Z,0.51
2019-02-24T09:27:13.769Z,1.16
2019-02-24T09:29:40.076Z,1.40
2019-02-24T09:32:06.388Z,1.39
2019-02-24T09:34:32.692Z,1.47
2019-02-24T09:36:59.017Z,1.64
2019-02-24T09:39:25.320Z,1.39
2019-02-24T09:41:51.719Z,1.33
2019-02-24T09:44:18.042Z,1.47
2019-02-24T09:46:44.357Z,1.41
2019-02-24T09:49:10.666Z,1.61
2019-02-24T09:51:36.975Z,1.65
2019-02-24T09:54:03.299Z,1.53
2019-02-24T09:56:29.611Z,1.32
2019-02-24T09:58:55.917Z,1.83
2019-02-24T10:01:22.233Z,2.40
2019-02-24T10:03:48.536Z,1.95
2019-02-24T10:06:14.849Z,1.51
2019-02-24T10:08:41.153Z,1.68
2019-02-24T10:11:07.471Z,1.23
2019-02-24T10:13:33.812Z,1.37
2019-02-24T10:16:00.128Z,1.99
2019-02-24T10:18:26.433Z,1.43
2019-02-24T10:20:52.753Z,1.33
2019-02-24T10:23:19.048Z,1.85
2019-02-24T10:25:45.355Z,1.75
2019-02-24T10:28:11.667Z,1.58
2019-02-24T10:30:37.983Z,1.09
2019-02-24T10:33:04.296Z,1.32
2019-02-24T10:35:30.606Z,2.12
2019-02-24T10:37:56.923Z,2.02
2019-02-24T10:40:23.229Z,1.95
2019-02-24T10:42:49.541Z,2.16
2019-02-24T10:45:15.847Z,2.52
2019-02-24T10:47:42.174Z,2.43
2019-02-24T10:50:08.473Z,2.87
2019-02-24T10:52:34.782Z,2.84
2019-02-24T10:55:01.093Z,2.09
2019-02-24T10:57:27.399Z,2.83
2019-02-24T10:59:53.727Z,3.55
2019-02-24T11:02:20.062Z,3.74
2019-02-24T11:04:46.368Z,2.81
2019-02-24T11:07:12.676Z,2.78
2019-02-24T11:09:39.003Z,3.23
2019-02-24T11:12:05.313Z,3.54
2019-02-24T11:14:31.621Z,4.29
2019-02-24T11:16:57.926Z,4.07
2019-02-24T11:19:24.241Z,4.28
2019-02-24T11:21:50.541Z,4.12
2019-02-24T11:24:16.895Z,3.10
2019-02-24T11:26:43.212Z,2.89
2019-02-24T11:29:09.514Z,3.00
2019-02-24T11:31:38.420Z,3.08
2019-02-24T11:34:02.138Z,3.58
2019-02-24T11:36:28.586Z,3.22
2019-02-24T11:38:54.864Z,3.17
2019-02-24T11:41:21.257Z,3.10
2019-02-24T11:43:47.556Z,2.47
2019-02-24T11:46:14.049Z,1.75
2019-02-24T11:48:40.461Z,1.12
2019-02-24T11:51:06.802Z,0.83
2019-02-24T11:53:33.293Z,0.73
2019-02-24T11:55:59.598Z,0.77
2019-02-24T11:58:26.109Z,1.12
2019-02-24T12:00:52.512Z,1.34
2019-02-24T12:03:18.847Z,1.54
2019-02-24T12:05:45.184Z,1.65
2019-02-24T12:08:11.896Z,1.86
2019-02-24T12:10:39.012Z,2.00
2019-02-24T12:13:09.097Z,1.95
2019-02-24T12:15:35.372Z,1.32
2019-02-24T12:18:01.683Z,1.34
2019-02-24T12:20:27.999Z,1.46
2019-02-24T12:22:54.404Z,1.65
2019-02-24T12:25:20.727Z,1.86
2019-02-24T12:27:47.029Z,2.13
2019-02-24T12:30:13.336Z,2.18
2019-02-24T12:32:39.677Z,1.51
2019-02-24T12:35:05.979Z,0.99
2019-02-24T12:37:32.405Z,1.04
2019-02-24T12:39:58.647Z,0.87
2019-02-24T12:42:24.955Z,0.66
2019-02-24T12:44:51.259Z,0.54
2019-02-24T12:47:17.603Z,0.42
2019-02-24T12:49:43.910Z,0.58
2019-02-24T12:52:10.212Z,0.52
2019-02-24T12:54:36.524Z,0.54
2019-02-24T12:57:02.833Z,0.26
2019-02-24T12:59:29.146Z,-0.14
2019-02-24T13:01:55.451Z,-0.55
2019-02-24T13:04:21.766Z,-0.54
2019-02-24T13:06:48.077Z,-0.49
2019-02-24T13:09:14.389Z,-0.53
2019-02-24T13:11:40.716Z,-0.50
2019-02-24T13:14:07.029Z,-0.26
2019-02-24T13:16:33.338Z,-0.26
2019-02-24T13:18:59.665Z,-0.42
2019-02-24T13:21:25.964Z,-0.55
2019-02-24T13:23:52.272Z,-0.40
2019-02-24T13:26:18.582Z,-0.56
2019-02-24T13:28:50.461Z,-0.63
2019-02-24T13:31:11.242Z,-0.70
2019-02-24T13:33:37.548Z,-0.66
2019-02-24T13:36:03.866Z,-0.65
2019-02-24T13:38:30.173Z,-0.46
2019-02-24T13:40:56.800Z,-0.49
2019-02-24T13:43:23.117Z,-0.63
2019-02-24T13:45:49.412Z,-0.88
2019-02-24T13:48:15.717Z,-1.06
2019-02-24T13:50:42.023Z,-0.97
2019-02-24T13:53:08.353Z,-0.89
2019-02-24T13:55:34.659Z,-0.90
2019-02-24T13:58:00.973Z,-0.80
2019-02-24T14:00:27.281Z,-0.91
2019-02-24T14:05:39.965Z,-1.06
2019-02-24T14:08:06.296Z,-1.04
2019-02-24T14:10:32.605Z,-1.15
2019-02-24T14:12:59.035Z,-1.04
2019-02-24T14:15:25.227Z,-0.92
2019-02-24T14:17:51.540Z,-0.86
2019-02-24T14:20:20.058Z,-0.94
2019-02-24T14:22:46.370Z,-1.14
2019-02-24T14:25:12.694Z,-1.19
2019-02-24T14:27:39.007Z,-1.24
2019-02-24T14:30:05.313Z,-1.50
2019-02-24T14:32:33.133Z,-1.45
2019-02-24T14:34:57.946Z,-1.47
2019-02-24T14:37:24.262Z,-1.62
2019-02-24T14:39:50.588Z,-1.65
2019-02-24T14:42:16.907Z,-1.65
2019-02-24T14:44:43.218Z,-1.59
2019-02-24T14:47:09.526Z,-1.64
2019-02-24T14:49:35.832Z,-1.72
2019-02-24T14:52:02.147Z,-1.67
2019-02-24T14:54:28.457Z,-1.71
2019-02-24T14:56:54.769Z,-1.72
2019-02-24T14:59:21.075Z,-1.69
2019-02-24T15:01:47.387Z,-1.70
2019-02-24T15:04:13.700Z,-1.62
2019-02-24T15:06:40.015Z,-1.57
2019-02-24T15:09:06.329Z,-1.64
2019-02-24T15:11:32.642Z,-1.62
2019-02-24T15:13:58.953Z,-1.66
2019-02-24T15:16:25.263Z,-1.65
2019-02-24T15:18:51.575Z,-1.60
2019-02-24T15:21:17.930Z,-1.61
2019-02-24T15:23:44.539Z,-1.83
2019-02-24T15:26:10.840Z,-1.88
2019-02-24T15:28:37.151Z,-1.98
2019-02-24T15:31:03.455Z,-2.05
2019-02-24T15:33:29.762Z,-2.18
2019-02-24T15:35:56.069Z,-2.21
2019-02-24T15:38:22.393Z,-2.34
2019-02-24T15:40:48.699Z,-2.38
2019-02-24T15:43:15.022Z,-2.31
2019-02-24T15:45:41.332Z,-2.50
2019-02-24T15:48:07.641Z,-2.57
2019-02-24T15:50:33.948Z,-2.60
2019-02-24T15:53:00.259Z,-2.66
2019-02-24T15:55:29.029Z,-2.48
2019-02-24T15:57:55.425Z,-2.52
2019-02-24T16:00:21.800Z,-2.62
2019-02-24T16:02:48.135Z,-2.78
2019-02-24T16:05:14.455Z,-2.82
2019-02-24T16:07:40.781Z,-2.81
2019-02-24T16:10:07.112Z,-2.87
2019-02-24T16:12:33.425Z,-2.88
2019-02-24T16:14:59.766Z,-2.86
2019-02-24T16:17:26.205Z,-2.94
2019-02-24T16:19:52.535Z,-2.96
2019-02-24T16:22:18.836Z,-3.03
2019-02-24T16:24:45.143Z,-3.10
2019-02-24T16:27:11.447Z,-3.12
2019-02-24T16:29:37.759Z,-3.12
2019-02-24T16:32:04.088Z,-3.21
2019-02-24T16:34:30.402Z,-3.19
2019-02-24T16:36:56.719Z,-3.19
2019-02-24T16:39:23.023Z,-3.27
2019-02-24T16:41:49.343Z,-3.20
2019-02-24T16:44:15.663Z,-3.26
2019-02-24T16:46:41.976Z,-3.29
2019-02-24T16:49:08.284Z,-3.22
2019-02-24T16:51:34.599Z,-3.35
2019-02-24T16:54:00.905Z,-3.32
2019-02-24T16:56:27.237Z,-3.28
2019-02-24T16:58:53.540Z,-3.36
2019-02-24T17:01:19.858Z,-3.40
2019-02-24T17:03:46.170Z,-3.40
2019-02-24T17:06:12.479Z,-3.43
2019-02-24T17:08:38.784Z,-3.41
2019-02-24T17:11:07.644Z,-3.40
2019-02-24T17:13:31.399Z,-3.36
2019-02-24T17:15:57.705Z,-3.23
2019-02-24T17:18:24.016Z,-3.27
2019-02-24T17:20:50.339Z,-3.37
2019-02-24T17:23:16.644Z,-3.52
2019-02-24T17:25:42.952Z,-3.51
2019-02-24T17:28:09.262Z,-3.47
2019-02-24T17:30:35.571Z,-3.43
2019-02-24T17:33:01.876Z,-3.52
2019-02-24T17:35:28.185Z,-3.51
2019-02-24T17:37:54.505Z,-3.47
2019-02-24T17:40:20.817Z,-3.32
2019-02-24T17:42:47.121Z,-3.43
2019-02-24T17:45:13.431Z,-3.46
2019-02-24T17:47:39.743Z,-3.42
2019-02-24T17:50:06.052Z,-3.36
2019-02-24T17:52:32.707Z,-3.37
2019-02-24T17:54:59.024Z,-3.35
2019-02-24T17:57:28.014Z,-3.33
2019-02-24T17:59:54.368Z,-3.33
2019-02-24T18:02:22.656Z,-3.41
2019-02-24T18:04:48.983Z,-3.45
2019-02-24T18:07:15.295Z,-3.44
2019-02-24T18:09:41.716Z,-3.53
2019-02-24T18:12:08.069Z,-3.62
2019-02-24T18:14:34.378Z,-3.48
2019-02-24T18:17:00.744Z,-3.55
2019-02-24T18:19:27.052Z,-3.56
2019-02-24T18:21:53.357Z,-3.54
2019-02-24T18:24:19.681Z,-3.55
2019-02-24T18:26:46.012Z,-3.57
2019-02-24T18:29:12.327Z,-3.56
2019-02-24T18:31:38.642Z,-3.58
2019-02-24T18:34:04.949Z,-3.59
2019-02-24T18:36:31.265Z,-3.51
2019-02-24T18:38:57.569Z,-3.55
2019-02-24T18:41:23.901Z,-3.60
2019-02-24T18:43:50.209Z,-3.45
2019-02-24T18:46:16.518Z,-3.44
2019-02-24T18:48:42.830Z,-3.28
2019-02-24T18:51:09.166Z,-3.30
2019-02-24T18:53:35.491Z,-3.26
2019-02-24T18:56:01.806Z,-3.32
2019-02-24T18:58:28.113Z,-3.31
2019-02-24T19:00:54.425Z,-3.30
2019-02-24T19:03:20.741Z,-3.31
2019-02-24T19:05:49.253Z,-3.33
2019-02-24T19:08:15.578Z,-3.30
2019-02-24T19:10:41.885Z,-3.00
2019-02-24T19:13:08.193Z,-3.02
2019-02-24T19:15:34.510Z,-2.94
2019-02-24T19:18:00.845Z,-3.04
2019-02-24T19:20:28.185Z,-3.21
2019-02-24T19:22:54.497Z,-3.23
2019-02-24T19:25:23.123Z,-3.25
2019-02-24T19:27:49.445Z,-3.15
2019-02-24T19:30:15.769Z,-3.16
2019-02-24T19:32:42.073Z,-3.22
2019-02-24T19:35:08.394Z,-3.26
2019-02-24T19:37:34.704Z,-3.34
2019-02-24T19:40:01.058Z,-3.38
2019-02-24T19:42:27.382Z,-3.31
2019-02-24T19:44:56.095Z,-3.29
2019-02-24T19:47:22.410Z,-3.28
2019-02-24T19:49:48.749Z,-3.34
2019-02-24T19:52:15.094Z,-3.31
2019-02-24T19:54:41.406Z,-3.28
2019-02-24T19:57:07.724Z,-3.33
2019-02-24T19:59:34.034Z,-3.28
2019-02-24T20:02:00.367Z,-3.17
2019-02-24T20:04:26.687Z,-3.19
2019-02-24T20:06:52.993Z,-3.24
2019-02-24T20:09:22.085Z,-3.31
2019-02-24T20:11:48.395Z,-3.37
2019-02-24T20:14:14.710Z,-3.46
2019-02-24T20:16:41.025Z,-3.45
2019-02-24T20:19:07.339Z,-3.52
2019-02-24T20:21:33.654Z,-3.55
2019-02-24T20:23:59.975Z,-3.50
2019-02-24T20:26:26.303Z,-3.60
2019-02-24T20:28:52.601Z,-3.63
2019-02-24T20:31:18.919Z,-3.55
2019-02-24T20:33:47.721Z,-3.48
2019-02-24T20:36:14.034Z,-3.50
2019-02-24T20:38:42.755Z,-3.50
2019-02-24T20:41:09.072Z,-3.48
2019-02-24T20:43:35.383Z,-3.50
2019-02-24T20:46:01.868Z,-3.61
2019-02-24T20:48:28.214Z,-3.63
2019-02-24T20:50:54.541Z,-3.62
2019-02-24T20:53:20.895Z,-3.69
2019-02-24T20:55:47.275Z,-3.61
2019-02-24T20:58:13.549Z,-3.54
2019-02-24T21:00:39.977Z,-3.64
2019-02-24T21:03:06.298Z,-3.69
2019-02-24T21:05:32.627Z,-3.72
2019-02-24T21:07:58.934Z,-3.84
2019-02-24T21:10:25.242Z,-3.83
2019-02-24T21:12:51.602Z,-3.86
2019-02-24T21:15:17.925Z,-3.89
2019-02-24T21:17:44.246Z,-3.92
2019-02-24T21:20:10.551Z,-3.81
2019-02-24T21:22:36.861Z,-3.72
2019-02-24T21:25:03.179Z,-3.75
2019-02-24T21:27:29.495Z,-3.75
2019-02-24T21:29:55.838Z,-3.84
2019-02-24T21:32:22.143Z,-4.00
2019-02-24T21:34:48.462Z,-4.07
2019-02-24T21:37:14.812Z,-4.13
2019-02-24T21:39:41.141Z,-4.12
2019-02-24T21:42:07.452Z,-4.09
2019-02-24T21:44:33.768Z,-4.04
2019-02-24T21:47:00.077Z,-3.98
2019-02-24T21:49:26.415Z,-4.02
2019-02-24T21:51:53.403Z,-3.95
2019-02-24T21:54:19.712Z,-4.08
2019-02-24T21:56:46.014Z,-4.13
2019-02-24T21:59:12.326Z,-4.20
2019-02-24T22:01:40.610Z,-4.30
2019-02-24T22:04:04.945Z,-4.31
2019-02-24T22:06:31.268Z,-4.34
2019-02-24T22:08:57.584Z,-4.40
2019-02-24T22:11:23.935Z,-4.41
2019-02-24T22:13:50.243Z,-4.40
2019-02-24T22:16:16.552Z,-4.42
2019-02-24T22:18:42.859Z,-4.39
2019-02-24T22:21:09.168Z,-4.37
2019-02-24T22:23:35.475Z,-4.44
2019-02-24T22:26:01.779Z,-4.51
2019-02-24T22:28:28.094Z,-4.51
2019-02-24T22:30:54.401Z,-4.51
2019-02-24T22:33:20.711Z,-4.54
2019-02-24T22:35:47.016Z,-4.63
2019-02-24T22:38:13.328Z,-4.70
2019-02-24T22:40:39.640Z,-4.70
2019-02-24T22:43:05.948Z,-4.72
2019-02-24T22:45:32.262Z,-4.65
2019-02-24T22:47:58.573Z,-4.80
2019-02-24T22:50:24.894Z,-4.89
2019-02-24T22:52:51.196Z,-4.96
2019-02-24T22:55:17.511Z,-5.12
2019-02-24T22:57:43.818Z,-5.38
2019-02-24T23:00:10.131Z,-5.54
2019-02-24T23:02:36.435Z,-5.69
2019-02-24T23:05:02.746Z,-5.73
2019-02-24T23:07:29.052Z,-5.70
2019-02-24T23:09:55.357Z,-5.68
2019-02-24T23:12:21.669Z,-5.65
2019-02-24T23:14:47.974Z,-5.69
2019-02-24T23:17:14.283Z,-5.71
2019-02-24T23:19:40.602Z,-5.66
2019-02-24T23:22:06.920Z,-5.72
2019-02-24T23:24:33.229Z,-5.65
2019-02-24T23:26:59.597Z,-5.65
2019-02-24T23:29:25.900Z,-5.71
2019-02-24T23:31:52.217Z,-5.77
2019-02-24T23:34:18.529Z,-5.75
2019-02-24T23:36:44.836Z,-5.66
2019-02-24T23:39:11.149Z,-5.66
2019-02-24T23:41:37.459Z,-5.72
2019-02-24T23:44:03.766Z,-5.80
2019-02-24T23:46:30.070Z,-5.82
2019-02-24T23:48:56.373Z,-5.98
2019-02-24T23:51:22.680Z,-6.21
2019-02-24T23:53:48.995Z,-6.35
2019-02-24T23:56:15.302Z,-6.39
2019-02-24T23:58:41.612Z,-6.45
